Time;durP1;ratioP1;P1;durP2;ratioP2;P2;SDS_P1;SDS_P2;PMS_P1;PMS_P2;Temp;Humidity;BMP_temperature;BMP_pressure;BME280_temperature;BME280_humidity;BME280_pressure;Samples;Min_cycle;Max_cycle;Signal;HPM_P1;HPM_P2
2023/09/19 00:01:30;;;;;;;4.03;1.50;;;;;;;;;;5002891;28;20018;-44
2023/09/19 00:03:55;;;;;;;3.58;1.38;;;;;;;;;;5001586;28;20049;-43
2023/09/19 00:06:20;;;;;;;6.50;2.07;;;;;;;;;;4992886;28;20376;-43
2023/09/19 00:08:47;;;;;;;4.30;1.90;;;;;;;;;;4993217;28;20304;-44
2023/09/19 00:11:13;;;;;;;6.47;1.80;;;;;;;;;;4999230;28;20022;-44
2023/09/19 00:13:38;;;;;;;5.93;1.92;;;;;;;;;;5003453;28;20032;-44
2023/09/19 00:16:10;;;;;;;4.87;2.17;;;;;;;;;;4997985;28;20476;-42
2023/09/19 00:18:36;;;;;;;6.32;1.83;;;;;;;;;;5000237;28;20022;-43
2023/09/19 00:21:04;;;;;;;4.55;2.42;;;;;;;;;;4995881;28;20157;-43
2023/09/19 00:23:31;;;;;;;11.15;3.42;;;;;;;;;;4994494;28;20391;-43
2023/09/19 00:26:00;;;;;;;5.38;1.85;;;;;;;;;;4995552;28;20524;-42
2023/09/19 00:28:26;;;;;;;4.07;1.40;;;;;;;;;;5000873;28;20042;-43
2023/09/19 00:30:51;;;;;;;8.00;1.63;;;;;;;;;;4996150;28;20038;-44
2023/09/19 00:33:16;;;;;;;3.50;1.90;;;;;;;;;;4994539;28;20042;-43
2023/09/19 00:35:48;;;;;;;4.80;1.95;;;;;;;;;;4986544;28;20280;-43
2023/09/19 00:38:15;;;;;;;3.55;1.05;;;;;;;;;;4976222;28;20022;-43
2023/09/19 00:40:43;;;;;;;8.48;1.80;;;;;;;;;;4986731;28;20412;-43
2023/09/19 00:43:08;;;;;;;5.28;1.85;;;;;;;;;;4989890;28;20057;-43
2023/09/19 00:45:36;;;;;;;5.83;2.27;;;;;;;;;;4993701;28;20676;-44
2023/09/19 00:48:10;;;;;;;6.00;2.35;;;;;;;;;;5003752;28;20034;-43
2023/09/19 00:50:36;;;;;;;3.15;0.90;;;;;;;;;;4991564;28;20033;-43
2023/09/19 00:53:05;;;;;;;6.50;1.80;;;;;;;;;;4984822;28;20073;-43
2023/09/19 00:55:32;;;;;;;6.95;2.00;;;;;;;;;;4994699;28;20503;-44
2023/09/19 00:57:58;;;;;;;4.85;1.60;;;;;;;;;;4996430;28;20040;-43
2023/09/19 01:00:24;;;;;;;4.93;2.60;;;;;;;;;;4992259;28;20381;-44
2023/09/19 01:02:49;;;;;;;7.43;2.75;;;;;;;;;;4998513;28;20038;-44
2023/09/19 01:05:15;;;;;;;4.57;1.40;;;;;;;;;;4987154;28;20034;-44
2023/09/19 01:07:41;;;;;;;3.80;2.00;;;;;;;;;;4994560;28;20031;-43
2023/09/19 01:10:10;;;;;;;5.38;1.58;;;;;;;;;;4997425;28;20030;-44
2023/09/19 01:12:54;;;;;;;3.92;1.63;;;;;;;;;;4999474;28;20423;-43
2023/09/19 01:15:29;;;;;;;7.70;1.98;;;;;;;;;;4987293;28;20025;-43
2023/09/19 01:17:54;;;;;;;8.10;2.00;;;;;;;;;;4989095;28;20049;-42
2023/09/19 01:20:29;;;;;;;7.70;1.83;;;;;;;;;;4990799;28;20014;-43
2023/09/19 01:23:09;;;;;;;7.78;1.80;;;;;;;;;;4997597;28;20030;-43
2023/09/19 01:25:53;;;;;;;3.92;1.60;;;;;;;;;;4994795;28;20034;-44
2023/09/19 01:28:36;;;;;;;5.55;1.73;;;;;;;;;;4996506;28;20101;-43
2023/09/19 01:31:03;;;;;;;5.45;1.67;;;;;;;;;;4991973;28;20033;-43
2023/09/19 01:33:33;;;;;;;4.30;1.77;;;;;;;;;;4996641;28;20049;-44
2023/09/19 01:35:58;;;;;;;4.38;1.92;;;;;;;;;;4994585;28;20488;-44
2023/09/19 01:38:24;;;;;;;4.83;1.63;;;;;;;;;;4993880;28;20052;-44
2023/09/19 01:40:59;;;;;;;3.33;1.50;;;;;;;;;;4996500;28;20609;-44
2023/09/19 01:43:30;;;;;;;4.55;2.10;;;;;;;;;;4995169;28;20116;-43
2023/09/19 01:45:56;;;;;;;6.65;2.17;;;;;;;;;;4992980;28;20080;-44
2023/09/19 01:48:24;;;;;;;6.13;1.83;;;;;;;;;;4991503;28;20061;-42
2023/09/19 01:50:55;;;;;;;4.97;1.95;;;;;;;;;;4994106;28;20109;-43
2023/09/19 01:53:28;;;;;;;4.00;2.42;;;;;;;;;;4995853;28;20482;-43
2023/09/19 01:55:54;;;;;;;5.13;1.60;;;;;;;;;;4996783;28;20033;-43
2023/09/19 01:58:31;;;;;;;3.53;1.55;;;;;;;;;;4999363;28;20407;-43
2023/09/19 02:00:58;;;;;;;5.15;1.70;;;;;;;;;;4999297;28;20076;-43
2023/09/19 02:03:23;;;;;;;3.67;1.75;;;;;;;;;;5005829;28;20187;-43
2023/09/19 02:05:53;;;;;;;10.32;3.83;;;;;;;;;;5003381;28;20551;-43
2023/09/19 02:08:19;;;;;;;4.03;1.75;;;;;;;;;;5005704;28;20093;-44
2023/09/19 02:10:48;;;;;;;3.38;1.60;;;;;;;;;;5004983;28;20424;-43
2023/09/19 02:13:14;;;;;;;6.35;1.90;;;;;;;;;;5008010;28;20030;-43
2023/09/19 02:15:39;;;;;;;4.28;1.73;;;;;;;;;;5010084;28;20021;-43
2023/09/19 02:18:05;;;;;;;4.40;1.90;;;;;;;;;;5010940;28;20053;-43
2023/09/19 02:20:32;;;;;;;3.17;1.35;;;;;;;;;;5004675;28;20033;-43
2023/09/19 02:22:58;;;;;;;3.95;1.88;;;;;;;;;;5000014;28;20037;-43
2023/09/19 02:25:26;;;;;;;3.17;1.90;;;;;;;;;;5007681;28;20041;-43
2023/09/19 02:27:53;;;;;;;6.47;1.85;;;;;;;;;;5004178;28;20038;-44
2023/09/19 02:30:20;;;;;;;6.47;1.65;;;;;;;;;;5000571;28;20373;-44
2023/09/19 02:32:46;;;;;;;5.00;1.95;;;;;;;;;;5004764;28;20031;-44
2023/09/19 02:35:12;;;;;;;6.88;2.30;;;;;;;;;;5004399;28;20092;-44
2023/09/19 02:37:37;;;;;;;5.70;2.08;;;;;;;;;;5007126;28;20026;-44
2023/09/19 02:40:18;;;;;;;7.63;2.75;;;;;;;;;;5008958;28;20025;-44
2023/09/19 02:42:48;;;;;;;3.72;2.00;;;;;;;;;;5007928;28;20598;-44
2023/09/19 02:45:14;;;;;;;3.58;1.65;;;;;;;;;;5000903;28;20037;-44
2023/09/19 02:47:42;;;;;;;5.97;1.90;;;;;;;;;;5008249;28;20041;-43
2023/09/19 02:50:10;;;;;;;6.60;2.08;;;;;;;;;;5009474;28;20026;-43
2023/09/19 02:52:35;;;;;;;7.00;2.30;;;;;;;;;;5004389;28;20030;-44
2023/09/19 02:55:01;;;;;;;5.72;1.75;;;;;;;;;;5011190;28;20508;-44
2023/09/19 02:57:27;;;;;;;4.32;2.50;;;;;;;;;;5003790;28;20026;-43
2023/09/19 02:59:52;;;;;;;5.63;1.70;;;;;;;;;;5003809;28;20035;-43
2023/09/19 03:02:18;;;;;;;5.85;2.10;;;;;;;;;;4995991;28;20034;-44
2023/09/19 03:04:45;;;;;;;5.13;2.92;;;;;;;;;;5006187;28;20021;-43
2023/09/19 03:07:11;;;;;;;7.60;1.70;;;;;;;;;;4997309;28;20042;-43
2023/09/19 03:09:36;;;;;;;6.28;1.90;;;;;;;;;;5004481;28;20032;-44
2023/09/19 03:12:03;;;;;;;4.57;1.87;;;;;;;;;;5002084;28;20030;-44
2023/09/19 03:14:34;;;;;;;5.40;1.98;;;;;;;;;;5005585;28;20284;-44
2023/09/19 03:16:59;;;;;;;4.78;2.05;;;;;;;;;;5002590;28;20022;-42
2023/09/19 03:19:26;;;;;;;6.73;2.57;;;;;;;;;;5004326;28;20037;-44
2023/09/19 03:21:51;;;;;;;6.32;2.80;;;;;;;;;;4999352;28;20149;-44
2023/09/19 03:24:16;;;;;;;3.33;1.95;;;;;;;;;;5000304;28;20041;-44
2023/09/19 03:26:42;;;;;;;6.30;1.67;;;;;;;;;;5007885;28;20025;-44
2023/09/19 03:29:07;;;;;;;7.30;1.97;;;;;;;;;;5006744;28;20173;-43
2023/09/19 03:31:32;;;;;;;5.05;2.08;;;;;;;;;;5004681;28;20277;-43
2023/09/19 03:33:58;;;;;;;3.10;1.60;;;;;;;;;;5003890;28;20034;-43
2023/09/19 03:36:23;;;;;;;6.32;2.10;;;;;;;;;;5005638;28;20770;-44
2023/09/19 03:38:48;;;;;;;3.17;1.67;;;;;;;;;;5003308;28;20022;-43
2023/09/19 03:41:16;;;;;;;10.67;1.93;;;;;;;;;;5003507;28;21564;-44
2023/09/19 03:43:41;;;;;;;7.07;1.92;;;;;;;;;;5003231;28;20295;-43
2023/09/19 03:46:07;;;;;;;4.70;1.70;;;;;;;;;;5003767;28;20025;-43
2023/09/19 03:48:33;;;;;;;4.82;1.50;;;;;;;;;;5006506;28;20030;-43
2023/09/19 03:50:58;;;;;;;6.07;1.98;;;;;;;;;;5005713;28;20042;-43
2023/09/19 03:53:24;;;;;;;5.00;2.05;;;;;;;;;;5002828;28;20030;-43
2023/09/19 03:55:49;;;;;;;6.43;1.90;;;;;;;;;;4999028;28;20026;-43
2023/09/19 03:58:15;;;;;;;5.65;2.47;;;;;;;;;;5000381;28;20026;-43
2023/09/19 04:00:40;;;;;;;5.47;2.20;;;;;;;;;;5003190;28;20077;-43
2023/09/19 04:03:06;;;;;;;5.40;1.70;;;;;;;;;;5007323;28;20045;-43
2023/09/19 04:05:32;;;;;;;6.00;2.22;;;;;;;;;;5004834;28;20428;-43
2023/09/19 04:07:57;;;;;;;7.05;2.22;;;;;;;;;;5004131;28;20029;-43
2023/09/19 04:10:23;;;;;;;3.10;2.23;;;;;;;;;;5002528;28;20099;-43
2023/09/19 04:12:52;;;;;;;5.53;2.67;;;;;;;;;;5010548;28;20050;-43
2023/09/19 04:15:18;;;;;;;5.75;2.90;;;;;;;;;;5010135;28;20037;-43
2023/09/19 04:17:43;;;;;;;4.57;2.13;;;;;;;;;;5011533;28;20021;-43
2023/09/19 04:20:12;;;;;;;5.27;1.93;;;;;;;;;;5001233;28;20281;-43
2023/09/19 04:22:37;;;;;;;4.20;1.92;;;;;;;;;;5003774;28;20284;-43
2023/09/19 04:25:02;;;;;;;7.57;2.20;;;;;;;;;;5003665;28;20444;-43
2023/09/19 04:27:28;;;;;;;9.63;2.20;;;;;;;;;;5001865;28;20477;-43
2023/09/19 04:29:53;;;;;;;4.60;1.88;;;;;;;;;;5005459;28;20113;-43
2023/09/19 04:32:19;;;;;;;7.27;1.53;;;;;;;;;;5001630;28;20042;-43
2023/09/19 04:34:44;;;;;;;5.27;1.60;;;;;;;;;;5004964;28;20033;-43
2023/09/19 04:37:10;;;;;;;4.50;1.85;;;;;;;;;;5001275;28;20105;-43
2023/09/19 04:39:36;;;;;;;4.40;1.48;;;;;;;;;;4993748;28;20095;-43
2023/09/19 04:42:01;;;;;;;5.97;1.67;;;;;;;;;;4994631;28;21052;-43
2023/09/19 04:44:26;;;;;;;5.85;1.60;;;;;;;;;;4995913;28;20061;-43
2023/09/19 04:46:52;;;;;;;4.55;2.00;;;;;;;;;;4997368;28;20030;-43
2023/09/19 04:49:18;;;;;;;4.95;2.10;;;;;;;;;;4991938;28;20029;-43
2023/09/19 04:51:43;;;;;;;5.70;2.03;;;;;;;;;;4997517;28;20022;-43
2023/09/19 04:54:09;;;;;;;4.23;1.90;;;;;;;;;;4998623;28;20534;-43
2023/09/19 04:56:34;;;;;;;5.72;1.92;;;;;;;;;;5012829;28;20037;-43
2023/09/19 04:58:59;;;;;;;3.90;1.73;;;;;;;;;;4998164;28;20031;-43
2023/09/19 05:01:25;;;;;;;5.88;3.22;;;;;;;;;;5001555;28;20758;-43
2023/09/19 05:03:52;;;;;;;6.30;1.58;;;;;;;;;;5007547;28;20063;-43
2023/09/19 05:06:18;;;;;;;3.95;1.58;;;;;;;;;;5006379;28;20068;-43
2023/09/19 05:08:43;;;;;;;8.02;1.55;;;;;;;;;;5007372;28;20013;-43
2023/09/19 05:11:09;;;;;;;2.73;1.43;;;;;;;;;;5010706;28;20029;-43
2023/09/19 05:13:34;;;;;;;3.97;1.10;;;;;;;;;;5005433;28;20061;-43
2023/09/19 05:16:00;;;;;;;4.27;1.53;;;;;;;;;;5009631;28;20025;-43
2023/09/19 05:18:25;;;;;;;11.88;2.50;;;;;;;;;;5010416;28;20109;-43
2023/09/19 05:20:50;;;;;;;4.65;1.30;;;;;;;;;;5011756;28;20022;-43
2023/09/19 05:23:16;;;;;;;4.67;1.80;;;;;;;;;;5006504;28;20048;-43
2023/09/19 05:25:43;;;;;;;3.75;1.35;;;;;;;;;;5009912;28;20018;-43
2023/09/19 05:28:09;;;;;;;3.72;1.90;;;;;;;;;;5004362;28;20148;-43
2023/09/19 05:30:35;;;;;;;5.38;1.70;;;;;;;;;;5005644;28;20046;-43
2023/09/19 05:33:01;;;;;;;3.78;1.40;;;;;;;;;;5005625;28;20062;-43
2023/09/19 05:35:27;;;;;;;6.32;1.90;;;;;;;;;;5006464;28;20361;-43
2023/09/19 05:37:53;;;;;;;5.22;1.65;;;;;;;;;;5002636;28;20052;-44
2023/09/19 05:40:18;;;;;;;5.78;1.50;;;;;;;;;;5004359;28;20434;-43
2023/09/19 05:42:46;;;;;;;6.47;1.85;;;;;;;;;;5009708;28;20105;-43
2023/09/19 05:45:12;;;;;;;7.20;1.52;;;;;;;;;;5004726;28;22337;-43
2023/09/19 05:47:45;;;;;;;5.35;1.92;;;;;;;;;;5004670;28;20446;-43
2023/09/19 05:50:10;;;;;;;8.57;1.92;;;;;;;;;;4999835;28;20388;-43
2023/09/19 05:52:37;;;;;;;6.60;1.48;;;;;;;;;;5006871;28;20021;-43
2023/09/19 05:55:05;;;;;;;2.33;1.45;;;;;;;;;;5004781;28;20412;-43
2023/09/19 05:57:30;;;;;;;3.80;1.92;;;;;;;;;;5004244;28;20030;-43
2023/09/19 05:59:55;;;;;;;8.47;1.97;;;;;;;;;;5000540;28;20026;-43
2023/09/19 06:02:22;;;;;;;8.50;2.67;;;;;;;;;;5001195;28;20809;-43
2023/09/19 06:04:47;;;;;;;6.53;2.00;;;;;;;;;;5007693;28;20468;-43
2023/09/19 06:07:13;;;;;;;3.60;1.80;;;;;;;;;;5004012;28;20026;-43
2023/09/19 06:09:38;;;;;;;4.45;1.70;;;;;;;;;;5008468;28;20026;-43
2023/09/19 06:12:04;;;;;;;7.43;1.95;;;;;;;;;;5007285;28;20036;-43
2023/09/19 06:14:30;;;;;;;4.55;1.77;;;;;;;;;;5009715;28;20055;-43
2023/09/19 06:16:55;;;;;;;8.05;2.10;;;;;;;;;;5009803;28;20424;-42
2023/09/19 06:19:22;;;;;;;7.50;2.40;;;;;;;;;;5003042;28;23132;-43
2023/09/19 06:21:48;;;;;;;7.45;2.03;;;;;;;;;;5003845;28;20339;-43
2023/09/19 06:24:13;;;;;;;6.60;2.47;;;;;;;;;;5003734;28;20488;-43
2023/09/19 06:26:38;;;;;;;3.77;1.60;;;;;;;;;;5009458;28;20018;-42
2023/09/19 06:29:04;;;;;;;5.67;2.03;;;;;;;;;;5010914;28;20332;-43
2023/09/19 06:31:32;;;;;;;6.40;2.17;;;;;;;;;;5007142;28;20022;-43
2023/09/19 06:33:58;;;;;;;5.80;2.13;;;;;;;;;;5007817;28;20034;-43
2023/09/19 06:36:23;;;;;;;5.57;1.92;;;;;;;;;;5007208;28;20037;-43
2023/09/19 06:38:51;;;;;;;4.47;2.13;;;;;;;;;;5004543;28;20084;-43
2023/09/19 06:41:17;;;;;;;5.88;1.77;;;;;;;;;;5005710;28;20084;-43
2023/09/19 06:43:42;;;;;;;4.60;2.13;;;;;;;;;;5008985;28;20407;-43
2023/09/19 06:46:07;;;;;;;5.82;2.28;;;;;;;;;;5005521;28;20148;-43
2023/09/19 06:48:33;;;;;;;5.27;2.40;;;;;;;;;;5007611;28;20030;-43
2023/09/19 06:51:04;;;;;;;6.78;2.22;;;;;;;;;;5006809;28;20276;-43
2023/09/19 06:53:31;;;;;;;7.68;2.08;;;;;;;;;;5008174;28;20392;-43
2023/09/19 06:55:57;;;;;;;4.13;2.35;;;;;;;;;;5009302;28;20025;-43
2023/09/19 06:58:22;;;;;;;5.38;2.50;;;;;;;;;;5006400;28;20092;-43
2023/09/19 07:00:47;;;;;;;4.57;1.87;;;;;;;;;;5010439;28;20033;-43
2023/09/19 07:03:13;;;;;;;4.20;1.73;;;;;;;;;;5008587;28;20489;-43
2023/09/19 07:05:39;;;;;;;8.40;2.63;;;;;;;;;;5007292;28;20022;-43
2023/09/19 07:08:10;;;;;;;7.53;2.30;;;;;;;;;;5008182;28;20029;-43
2023/09/19 07:10:36;;;;;;;5.43;1.70;;;;;;;;;;5006454;28;20030;-43
2023/09/19 07:13:02;;;;;;;6.78;2.40;;;;;;;;;;5009427;28;20056;-43
2023/09/19 07:15:29;;;;;;;8.07;2.45;;;;;;;;;;5009243;28;20025;-43
2023/09/19 07:17:56;;;;;;;5.65;2.63;;;;;;;;;;5010988;28;20022;-43
2023/09/19 07:20:21;;;;;;;14.25;3.00;;;;;;;;;;5003054;28;20460;-43
2023/09/19 07:22:47;;;;;;;4.90;2.53;;;;;;;;;;5004996;28;20092;-43
2023/09/19 07:25:13;;;;;;;5.43;2.40;;;;;;;;;;5004191;28;20030;-43
2023/09/19 07:27:39;;;;;;;6.15;2.13;;;;;;;;;;5001836;28;20034;-43
2023/09/19 07:30:05;;;;;;;7.25;2.40;;;;;;;;;;5012112;28;20056;-43
2023/09/19 07:32:30;;;;;;;3.17;1.98;;;;;;;;;;5011060;28;20038;-43
2023/09/19 07:34:56;;;;;;;5.80;2.80;;;;;;;;;;5010701;28;20032;-43
2023/09/19 07:37:21;;;;;;;3.63;1.50;;;;;;;;;;5004767;28;20088;-43
2023/09/19 07:39:47;;;;;;;7.57;2.40;;;;;;;;;;5011732;28;20075;-43
2023/09/19 07:42:17;;;;;;;7.70;2.10;;;;;;;;;;5014119;28;20458;-43
2023/09/19 07:44:42;;;;;;;4.07;1.67;;;;;;;;;;5003386;28;20428;-43
2023/09/19 07:47:08;;;;;;;3.90;2.05;;;;;;;;;;5007873;28;20038;-43
2023/09/19 07:49:34;;;;;;;9.23;1.87;;;;;;;;;;5008930;28;20018;-43
2023/09/19 07:51:59;;;;;;;11.70;4.35;;;;;;;;;;5012222;28;20272;-43
2023/09/19 07:54:24;;;;;;;5.70;1.65;;;;;;;;;;5011749;28;20522;-43
2023/09/19 07:56:50;;;;;;;8.15;3.80;;;;;;;;;;5007869;28;20535;-43
2023/09/19 07:59:16;;;;;;;8.93;2.80;;;;;;;;;;5010449;28;20550;-43
2023/09/19 08:01:41;;;;;;;7.88;2.45;;;;;;;;;;5008671;28;20563;-43
2023/09/19 08:04:07;;;;;;;9.43;2.17;;;;;;;;;;5011513;28;20068;-43
2023/09/19 08:06:32;;;;;;;4.72;1.55;;;;;;;;;;5008323;28;20029;-43
2023/09/19 08:08:58;;;;;;;3.57;1.63;;;;;;;;;;5012138;28;20044;-43
2023/09/19 08:11:24;;;;;;;9.75;2.80;;;;;;;;;;5011802;28;20352;-43
2023/09/19 08:13:49;;;;;;;4.15;1.60;;;;;;;;;;5007781;28;20049;-43
2023/09/19 08:16:15;;;;;;;10.43;1.80;;;;;;;;;;5011129;28;20053;-43
2023/09/19 08:18:40;;;;;;;6.63;2.03;;;;;;;;;;5008607;28;20468;-43
2023/09/19 08:21:10;;;;;;;4.30;1.48;;;;;;;;;;5011802;28;20022;-43
2023/09/19 08:23:39;;;;;;;4.00;1.70;;;;;;;;;;5008631;28;20103;-42
2023/09/19 08:26:08;;;;;;;6.43;1.60;;;;;;;;;;5012997;28;20084;-43
2023/09/19 08:28:34;;;;;;;6.80;1.77;;;;;;;;;;5010642;28;20109;-43
2023/09/19 08:31:04;;;;;;;7.97;1.70;;;;;;;;;;5009305;28;20104;-43
2023/09/19 08:33:31;;;;;;;9.45;1.80;;;;;;;;;;5014847;28;20029;-43
2023/09/19 08:35:56;;;;;;;5.57;1.90;;;;;;;;;;5011795;28;20626;-43
2023/09/19 08:38:21;;;;;;;4.25;1.35;;;;;;;;;;5012379;28;20033;-43
2023/09/19 08:40:47;;;;;;;9.00;1.75;;;;;;;;;;5004785;28;20057;-43
2023/09/19 08:43:12;;;;;;;5.17;1.50;;;;;;;;;;5016561;28;20520;-43
2023/09/19 08:45:39;;;;;;;11.45;2.28;;;;;;;;;;5009191;28;20327;-43
2023/09/19 08:48:25;;;;;;;5.13;1.65;;;;;;;;;;5007521;28;20056;-43
2023/09/19 08:51:02;;;;;;;6.57;1.52;;;;;;;;;;5006954;28;20045;-43
2023/09/19 08:53:50;;;;;;;8.68;2.00;;;;;;;;;;5005356;28;20038;-43
2023/09/19 08:56:18;;;;;;;6.72;1.85;;;;;;;;;;5005625;28;20018;-43
2023/09/19 08:58:58;;;;;;;7.57;1.70;;;;;;;;;;5008986;28;20021;-43
2023/09/19 09:01:26;;;;;;;3.25;1.42;;;;;;;;;;5010419;28;20048;-43
2023/09/19 09:03:56;;;;;;;5.78;2.20;;;;;;;;;;5010658;28;20026;-43
2023/09/19 09:06:23;;;;;;;11.68;1.95;;;;;;;;;;5011025;28;20029;-42
2023/09/19 09:08:48;;;;;;;6.63;2.13;;;;;;;;;;5000155;28;20037;-43
2023/09/19 09:11:14;;;;;;;6.60;1.73;;;;;;;;;;5005072;28;20029;-43
2023/09/19 09:13:41;;;;;;;3.85;1.25;;;;;;;;;;5009284;28;20022;-42
2023/09/19 09:16:06;;;;;;;3.13;1.60;;;;;;;;;;5010319;28;20025;-43
2023/09/19 09:18:32;;;;;;;4.88;1.50;;;;;;;;;;5009148;28;20417;-43
2023/09/19 09:20:57;;;;;;;6.63;1.85;;;;;;;;;;5011568;28;20109;-43
2023/09/19 09:23:22;;;;;;;4.18;1.60;;;;;;;;;;5009984;28;22474;-43
2023/09/19 09:25:54;;;;;;;6.13;2.25;;;;;;;;;;5007875;28;20033;-43
2023/09/19 09:28:23;;;;;;;5.50;1.90;;;;;;;;;;5002495;28;20104;-43
2023/09/19 09:30:50;;;;;;;6.78;2.10;;;;;;;;;;5007337;28;20021;-43
2023/09/19 09:33:16;;;;;;;7.70;2.20;;;;;;;;;;5011236;28;20030;-43
2023/09/19 09:35:56;;;;;;;8.15;3.47;;;;;;;;;;5005188;28;20024;-43
2023/09/19 09:38:27;;;;;;;5.68;2.67;;;;;;;;;;5007589;28;20488;-43
2023/09/19 09:40:58;;;;;;;7.28;2.15;;;;;;;;;;5011350;28;20104;-42
2023/09/19 09:43:38;;;;;;;3.45;1.60;;;;;;;;;;5009820;28;20041;-43
2023/09/19 09:46:11;;;;;;;7.20;2.00;;;;;;;;;;5007085;28;20029;-43
2023/09/19 09:48:39;;;;;;;7.82;2.30;;;;;;;;;;5008742;28;20072;-43
2023/09/19 09:51:07;;;;;;;4.18;1.98;;;;;;;;;;5008565;28;20041;-43
2023/09/19 09:53:33;;;;;;;10.45;2.08;;;;;;;;;;5009395;28;20080;-43
2023/09/19 09:56:02;;;;;;;8.57;2.22;;;;;;;;;;5012896;28;20104;-43
2023/09/19 09:58:35;;;;;;;6.05;2.22;;;;;;;;;;5006734;28;20033;-43
2023/09/19 10:01:08;;;;;;;9.15;3.05;;;;;;;;;;5009060;28;20033;-43
2023/09/19 10:03:43;;;;;;;20.30;5.15;;;;;;;;;;5008685;28;20034;-43
2023/09/19 10:06:32;;;;;;;3.58;1.25;;;;;;;;;;5004577;28;20113;-43
2023/09/19 10:11:45;;;;;;;5.90;2.45;;;;;;;;;;5000780;28;20044;-43
2023/09/19 10:14:12;;;;;;;6.15;1.52;;;;;;;;;;5008419;28;20025;-43
2023/09/19 10:16:40;;;;;;;5.90;1.77;;;;;;;;;;4999690;28;20032;-43
2023/09/19 10:19:07;;;;;;;2.90;1.45;;;;;;;;;;4999529;28;20117;-43
2023/09/19 10:21:33;;;;;;;7.28;2.30;;;;;;;;;;5005926;28;20021;-43
2023/09/19 10:23:59;;;;;;;5.03;1.70;;;;;;;;;;5004828;28;20798;-43
2023/09/19 10:26:26;;;;;;;11.27;1.90;;;;;;;;;;4999948;28;20047;-43
2023/09/19 10:28:53;;;;;;;9.32;2.17;;;;;;;;;;5005259;28;20050;-43
2023/09/19 10:31:21;;;;;;;7.57;2.00;;;;;;;;;;5014147;28;20494;-43
2023/09/19 10:33:48;;;;;;;5.43;1.95;;;;;;;;;;5009311;28;20188;-43
2023/09/19 10:36:14;;;;;;;9.10;2.47;;;;;;;;;;5004988;28;21798;-43
2023/09/19 10:38:43;;;;;;;5.57;1.60;;;;;;;;;;4996185;28;20056;-43
2023/09/19 10:41:10;;;;;;;7.35;2.00;;;;;;;;;;5005499;28;20033;-43
2023/09/19 10:43:38;;;;;;;4.70;1.88;;;;;;;;;;5003185;28;20025;-43
2023/09/19 10:46:07;;;;;;;9.88;3.17;;;;;;;;;;5003319;28;20044;-43
2023/09/19 10:48:32;;;;;;;4.70;1.60;;;;;;;;;;5001812;28;20029;-43
2023/09/19 10:51:04;;;;;;;4.63;1.77;;;;;;;;;;5006214;28;20018;-43
2023/09/19 10:53:32;;;;;;;7.53;2.72;;;;;;;;;;5004562;28;20032;-43
2023/09/19 10:55:59;;;;;;;10.45;1.88;;;;;;;;;;5004041;28;20425;-43
2023/09/19 10:58:29;;;;;;;7.20;1.50;;;;;;;;;;5004873;28;20053;-43
2023/09/19 11:01:12;;;;;;;5.03;1.83;;;;;;;;;;5006239;28;20104;-43
2023/09/19 11:03:43;;;;;;;7.18;1.95;;;;;;;;;;4988244;28;20053;-43
2023/09/19 11:06:18;;;;;;;4.60;1.70;;;;;;;;;;5008587;28;20954;-43
2023/09/19 11:11:41;;;;;;;6.20;1.88;;;;;;;;;;5010953;28;20022;-43
2023/09/19 11:14:25;;;;;;;5.75;1.55;;;;;;;;;;5007626;28;20109;-43
2023/09/19 11:17:15;;;;;;;5.88;2.30;;;;;;;;;;5013135;28;20384;-43
2023/09/19 11:19:59;;;;;;;8.07;2.60;;;;;;;;;;5006523;28;20101;-43
2023/09/19 11:22:26;;;;;;;7.60;2.22;;;;;;;;;;5008792;28;21342;-43
2023/09/19 11:24:51;;;;;;;6.70;2.30;;;;;;;;;;5008779;28;20048;-43
2023/09/19 11:27:18;;;;;;;7.13;2.17;;;;;;;;;;5008415;28;20022;-43
2023/09/19 11:29:43;;;;;;;6.03;2.13;;;;;;;;;;5010715;28;20283;-43
2023/09/19 11:32:09;;;;;;;5.05;1.83;;;;;;;;;;5003584;28;20432;-43
2023/09/19 11:34:38;;;;;;;7.25;1.90;;;;;;;;;;5008184;28;20037;-45
2023/09/19 11:37:11;;;;;;;5.18;1.73;;;;;;;;;;5006636;28;21109;-44
2023/09/19 11:39:38;;;;;;;8.25;1.98;;;;;;;;;;5009359;28;20484;-45
2023/09/19 11:42:23;;;;;;;5.28;1.92;;;;;;;;;;5012217;28;20033;-44
2023/09/19 11:44:51;;;;;;;8.20;2.30;;;;;;;;;;5009773;28;20026;-43
2023/09/19 11:47:18;;;;;;;6.88;1.70;;;;;;;;;;5006462;28;20121;-43
2023/09/19 11:49:44;;;;;;;6.53;2.15;;;;;;;;;;5008529;28;20083;-43
2023/09/19 11:52:09;;;;;;;7.47;2.50;;;;;;;;;;5004468;28;20594;-43
2023/09/19 11:54:36;;;;;;;4.57;1.75;;;;;;;;;;5006337;28;20025;-43
2023/09/19 11:57:02;;;;;;;9.40;2.00;;;;;;;;;;5012441;28;20026;-43
2023/09/19 11:59:28;;;;;;;5.70;1.52;;;;;;;;;;5008642;28;20022;-43
2023/09/19 12:01:57;;;;;;;8.05;2.17;;;;;;;;;;5003591;28;20027;-43
2023/09/19 12:04:38;;;;;;;8.73;3.13;;;;;;;;;;5008326;28;20084;-43
2023/09/19 12:07:04;;;;;;;4.40;1.63;;;;;;;;;;5001806;28;20061;-43
2023/09/19 12:09:29;;;;;;;7.35;2.30;;;;;;;;;;5007968;28;20025;-43
2023/09/19 12:11:55;;;;;;;6.37;2.03;;;;;;;;;;5009625;28;20029;-43
2023/09/19 12:14:25;;;;;;;5.00;1.83;;;;;;;;;;5013238;28;20280;-43
2023/09/19 12:16:55;;;;;;;11.98;2.47;;;;;;;;;;5012901;28;20363;-43
2023/09/19 12:19:21;;;;;;;6.78;2.03;;;;;;;;;;5009917;28;20021;-43
2023/09/19 12:21:57;;;;;;;15.80;2.40;;;;;;;;;;5006869;28;20041;-43
2023/09/19 12:24:26;;;;;;;7.68;1.83;;;;;;;;;;5011330;28;20036;-43
2023/09/19 12:26:52;;;;;;;4.10;1.90;;;;;;;;;;5010412;28;20036;-43
2023/09/19 12:29:21;;;;;;;6.30;1.75;;;;;;;;;;5012002;28;20026;-43
2023/09/19 12:31:55;;;;;;;7.90;2.28;;;;;;;;;;5011280;28;20018;-43
2023/09/19 12:34:27;;;;;;;7.10;2.42;;;;;;;;;;5010762;28;20369;-43
2023/09/19 12:36:52;;;;;;;;;;;;;;;;;;5014848;28;20034;-43
2023/09/19 12:39:26;;;;;;;5.82;1.90;;;;;;;;;;5004024;28;19909;-43
2023/09/19 12:41:53;;;;;;;3.03;1.52;;;;;;;;;;5003953;28;20026;-44
2023/09/19 12:44:19;;;;;;;6.43;2.10;;;;;;;;;;4990911;28;20096;-43
2023/09/19 12:46:45;;;;;;;7.75;2.03;;;;;;;;;;5014724;28;20026;-43
2023/09/19 12:49:20;;;;;;;6.38;2.00;;;;;;;;;;5011196;28;20400;-43
2023/09/19 12:51:46;;;;;;;6.38;2.00;;;;;;;;;;5004882;28;20404;-43
2023/09/19 12:54:11;;;;;;;8.70;2.17;;;;;;;;;;5000174;28;20034;-43
2023/09/19 12:56:44;;;;;;;6.28;2.00;;;;;;;;;;5003723;28;20017;-43
2023/09/19 12:59:11;;;;;;;9.52;2.20;;;;;;;;;;5005984;28;20030;-43
2023/09/19 13:01:42;;;;;;;5.22;2.25;;;;;;;;;;5002295;28;20034;-43
2023/09/19 13:04:18;;;;;;;7.47;2.20;;;;;;;;;;5003317;28;20026;-43
2023/09/19 13:06:44;;;;;;;7.35;2.30;;;;;;;;;;5003175;28;20030;-43
2023/09/19 13:09:10;;;;;;;7.93;2.20;;;;;;;;;;5003432;28;20025;-43
2023/09/19 13:11:40;;;;;;;3.72;1.60;;;;;;;;;;5001471;28;20042;-43
2023/09/19 13:14:27;;;;;;;7.07;1.92;;;;;;;;;;5002520;28;20025;-43
2023/09/19 13:17:18;;;;;;;5.75;1.77;;;;;;;;;;5001646;28;20036;-43
2023/09/19 13:19:48;;;;;;;7.45;2.28;;;;;;;;;;4999806;28;20567;-43
2023/09/19 13:22:32;;;;;;;8.00;2.08;;;;;;;;;;5004198;28;20037;-43
2023/09/19 13:24:58;;;;;;;7.63;2.30;;;;;;;;;;5002331;28;20524;-43
2023/09/19 13:27:24;;;;;;;6.95;2.40;;;;;;;;;;5002105;28;20432;-43
2023/09/19 13:29:49;;;;;;;3.97;1.87;;;;;;;;;;5001387;28;20081;-43
2023/09/19 13:32:14;;;;;;;3.77;1.17;;;;;;;;;;5002144;28;20574;-43
2023/09/19 13:34:39;;;;;;;6.10;2.05;;;;;;;;;;5003243;28;20121;-43
2023/09/19 13:37:06;;;;;;;7.90;2.60;;;;;;;;;;5001053;28;20034;-43
2023/09/19 13:39:31;;;;;;;4.65;1.95;;;;;;;;;;4994197;28;20042;-43
2023/09/19 13:41:56;;;;;;;8.17;2.03;;;;;;;;;;5003002;28;20060;-43
2023/09/19 13:44:21;;;;;;;6.63;1.80;;;;;;;;;;4998555;28;20292;-43
2023/09/19 13:46:47;;;;;;;6.63;1.80;;;;;;;;;;4997345;28;20077;-44
2023/09/19 13:49:13;;;;;;;6.38;2.05;;;;;;;;;;5004826;28;20277;-43
2023/09/19 13:51:39;;;;;;;8.75;2.08;;;;;;;;;;5005260;28;20022;-44
2023/09/19 13:54:08;;;;;;;5.15;1.52;;;;;;;;;;5007868;28;20034;-43
2023/09/19 13:56:33;;;;;;;5.28;2.10;;;;;;;;;;5005750;28;20092;-43
2023/09/19 13:58:58;;;;;;;3.83;1.40;;;;;;;;;;5003546;28;20038;-44
2023/09/19 14:01:25;;;;;;;5.53;1.52;;;;;;;;;;5003016;28;20042;-37
2023/09/19 14:03:50;;;;;;;4.38;1.67;;;;;;;;;;4999971;28;20073;-37
2023/09/19 14:06:16;;;;;;;7.40;1.60;;;;;;;;;;4999021;28;20038;-36
2023/09/19 14:08:42;;;;;;;6.43;1.45;;;;;;;;;;5000320;28;20057;-36
2023/09/19 14:11:08;;;;;;;3.70;1.48;;;;;;;;;;4997343;28;20926;-37
2023/09/19 14:13:33;;;;;;;7.13;1.70;;;;;;;;;;5001287;28;20053;-36
2023/09/19 14:16:05;;;;;;;4.33;1.40;;;;;;;;;;5000349;28;20022;-37
2023/09/19 14:18:30;;;;;;;;;;;;;;;;;;4995890;28;20030;-37
2023/09/19 14:20:55;;;;;;;8.13;1.40;;;;;;;;;;4997105;28;19980;-36
2023/09/19 14:23:21;;;;;;;5.77;1.70;;;;;;;;;;4995294;28;25656;-39
2023/09/19 14:25:46;;;;;;;6.13;1.50;;;;;;;;;;4998746;28;20280;-36
2023/09/19 14:28:12;;;;;;;5.33;1.53;;;;;;;;;;5003119;28;20288;-37
2023/09/19 14:30:37;;;;;;;6.72;1.67;;;;;;;;;;4998550;28;20034;-39
2023/09/19 14:33:03;;;;;;;4.80;1.42;;;;;;;;;;4998313;28;20042;-37
2023/09/19 14:35:29;;;;;;;3.47;1.10;;;;;;;;;;4997879;28;20065;-37
2023/09/19 14:37:55;;;;;;;3.63;1.40;;;;;;;;;;4999355;28;20101;-38
2023/09/19 14:40:20;;;;;;;4.13;1.30;;;;;;;;;;4999515;28;20338;-37
2023/09/19 14:42:48;;;;;;;5.30;1.40;;;;;;;;;;4999644;28;22328;-37
2023/09/19 14:45:17;;;;;;;3.33;1.30;;;;;;;;;;5000518;28;20484;-37
2023/09/19 14:47:43;;;;;;;5.85;1.23;;;;;;;;;;4998447;28;20115;-37
2023/09/19 14:50:08;;;;;;;4.87;1.30;;;;;;;;;;4993675;28;20096;-38
2023/09/19 14:52:36;;;;;;;5.32;1.20;;;;;;;;;;4997813;28;20022;-38